sensor_id;sensor_type;location;lat;lon;timestamp;temperature;humidity
9083;DHT22;4577;48.704;9.000;2022-08-18T00:01:44;20.80;65.60
9083;DHT22;4577;48.704;9.000;2022-08-18T00:06:39;20.70;65.60
9083;DHT22;4577;48.704;9.000;2022-08-18T00:09:08;20.60;65.80
9083;DHT22;4577;48.704;9.000;2022-08-18T00:11:37;20.80;65.30
9083;DHT22;4577;48.704;9.000;2022-08-18T00:18:56;20.90;64.90
9083;DHT22;4577;48.704;9.000;2022-08-18T00:26:14;21.00;64.10
9083;DHT22;4577;48.704;9.000;2022-08-18T00:40:52;20.90;63.50
9083;DHT22;4577;48.704;9.000;2022-08-18T00:43:30;20.90;63.30
9083;DHT22;4577;48.704;9.000;2022-08-18T00:45:57;20.80;63.40
9083;DHT22;4577;48.704;9.000;2022-08-18T00:48:23;20.90;63.40
9083;DHT22;4577;48.704;9.000;2022-08-18T00:50:56;20.90;63.30
9083;DHT22;4577;48.704;9.000;2022-08-18T00:53:52;20.90;63.60
9083;DHT22;4577;48.704;9.000;2022-08-18T00:56:26;20.80;62.40
9083;DHT22;4577;48.704;9.000;2022-08-18T00:58:58;20.90;62.70
9083;DHT22;4577;48.704;9.000;2022-08-18T01:01:27;20.70;63.20
9083;DHT22;4577;48.704;9.000;2022-08-18T01:03:58;20.80;63.90
9083;DHT22;4577;48.704;9.000;2022-08-18T01:13:53;20.80;65.80
9083;DHT22;4577;48.704;9.000;2022-08-18T01:16:19;20.80;66.80
9083;DHT22;4577;48.704;9.000;2022-08-18T01:19:05;20.80;67.30
9083;DHT22;4577;48.704;9.000;2022-08-18T01:22:07;20.80;65.40
9083;DHT22;4577;48.704;9.000;2022-08-18T01:24:36;20.60;66.00
9083;DHT22;4577;48.704;9.000;2022-08-18T01:27:21;20.50;65.70
9083;DHT22;4577;48.704;9.000;2022-08-18T01:29:48;20.50;65.40
9083;DHT22;4577;48.704;9.000;2022-08-18T01:32:17;20.40;65.90
9083;DHT22;4577;48.704;9.000;2022-08-18T01:34:45;20.30;66.70
9083;DHT22;4577;48.704;9.000;2022-08-18T01:37:19;20.40;66.80
9083;DHT22;4577;48.704;9.000;2022-08-18T01:39:46;20.40;66.30
9083;DHT22;4577;48.704;9.000;2022-08-18T01:42:13;20.50;66.50
9083;DHT22;4577;48.704;9.000;2022-08-18T01:47:09;20.30;66.60
9083;DHT22;4577;48.704;9.000;2022-08-18T01:49:37;20.30;67.40
9083;DHT22;4577;48.704;9.000;2022-08-18T01:52:03;20.10;68.10
9083;DHT22;4577;48.704;9.000;2022-08-18T01:54:32;20.40;67.80
9083;DHT22;4577;48.704;9.000;2022-08-18T01:56:58;20.40;67.80
9083;DHT22;4577;48.704;9.000;2022-08-18T01:59:24;20.40;67.30
9083;DHT22;4577;48.704;9.000;2022-08-18T02:01:50;20.40;67.10
9083;DHT22;4577;48.704;9.000;2022-08-18T02:04:17;20.40;67.20
9083;DHT22;4577;48.704;9.000;2022-08-18T02:11:35;19.70;69.00
9083;DHT22;4577;48.704;9.000;2022-08-18T02:26:15;19.70;71.50
9083;DHT22;4577;48.704;9.000;2022-08-18T02:28:42;19.90;71.20
9083;DHT22;4577;48.704;9.000;2022-08-18T02:31:19;19.90;70.90
9083;DHT22;4577;48.704;9.000;2022-08-18T02:33:46;20.00;70.90
9083;DHT22;4577;48.704;9.000;2022-08-18T02:36:12;19.80;70.60
9083;DHT22;4577;48.704;9.000;2022-08-18T02:38:39;19.40;73.10
9083;DHT22;4577;48.704;9.000;2022-08-18T02:41:07;19.30;73.80
9083;DHT22;4577;48.704;9.000;2022-08-18T02:43:34;19.10;74.90
9083;DHT22;4577;48.704;9.000;2022-08-18T02:46:00;18.90;76.20
9083;DHT22;4577;48.704;9.000;2022-08-18T02:48:26;18.80;77.40
9083;DHT22;4577;48.704;9.000;2022-08-18T02:53:29;18.70;79.50
9083;DHT22;4577;48.704;9.000;2022-08-18T02:56:04;18.60;80.30
9083;DHT22;4577;48.704;9.000;2022-08-18T03:01:05;19.20;78.70
9083;DHT22;4577;48.704;9.000;2022-08-18T03:10:52;19.00;80.70
9083;DHT22;4577;48.704;9.000;2022-08-18T03:15:45;18.80;81.60
9083;DHT22;4577;48.704;9.000;2022-08-18T03:25:30;19.50;80.10
9083;DHT22;4577;48.704;9.000;2022-08-18T03:30:22;19.70;78.40
9083;DHT22;4577;48.704;9.000;2022-08-18T03:32:49;19.70;77.50
9083;DHT22;4577;48.704;9.000;2022-08-18T03:35:15;19.80;77.60
9083;DHT22;4577;48.704;9.000;2022-08-18T03:40:07;19.80;77.20
9083;DHT22;4577;48.704;9.000;2022-08-18T03:42:35;19.90;77.00
9083;DHT22;4577;48.704;9.000;2022-08-18T03:45:01;19.90;76.20
9083;DHT22;4577;48.704;9.000;2022-08-18T03:47:27;19.80;76.60
9083;DHT22;4577;48.704;9.000;2022-08-18T03:49:52;19.90;76.60
9083;DHT22;4577;48.704;9.000;2022-08-18T03:57:11;19.80;77.00
9083;DHT22;4577;48.704;9.000;2022-08-18T03:59:38;19.80;77.40
9083;DHT22;4577;48.704;9.000;2022-08-18T04:04:32;19.30;79.90
9083;DHT22;4577;48.704;9.000;2022-08-18T04:07:05;19.40;80.00
9083;DHT22;4577;48.704;9.000;2022-08-18T04:09:33;19.30;80.00
9083;DHT22;4577;48.704;9.000;2022-08-18T04:12:05;19.50;79.60
9083;DHT22;4577;48.704;9.000;2022-08-18T04:14:38;19.60;78.30
9083;DHT22;4577;48.704;9.000;2022-08-18T04:19:30;19.50;78.90
9083;DHT22;4577;48.704;9.000;2022-08-18T04:21:59;19.60;78.10
9083;DHT22;4577;48.704;9.000;2022-08-18T04:24:27;19.70;77.70
9083;DHT22;4577;48.704;9.000;2022-08-18T04:26:54;19.80;77.70
9083;DHT22;4577;48.704;9.000;2022-08-18T04:29:21;19.80;78.00
9083;DHT22;4577;48.704;9.000;2022-08-18T04:31:48;19.80;78.20
9083;DHT22;4577;48.704;9.000;2022-08-18T04:34:15;19.80;78.40
9083;DHT22;4577;48.704;9.000;2022-08-18T04:36:41;20.00;78.20
9083;DHT22;4577;48.704;9.000;2022-08-18T04:39:10;19.80;78.40
9083;DHT22;4577;48.704;9.000;2022-08-18T04:41:37;19.80;78.50
9083;DHT22;4577;48.704;9.000;2022-08-18T04:44:05;19.80;78.90
9083;DHT22;4577;48.704;9.000;2022-08-18T04:46:42;19.80;78.50
9083;DHT22;4577;48.704;9.000;2022-08-18T04:49:09;19.80;78.10
9083;DHT22;4577;48.704;9.000;2022-08-18T04:51:41;19.90;77.70
9083;DHT22;4577;48.704;9.000;2022-08-18T04:56:36;19.60;78.70
9083;DHT22;4577;48.704;9.000;2022-08-18T05:01:35;19.20;81.10
9083;DHT22;4577;48.704;9.000;2022-08-18T05:04:01;19.30;81.50
9083;DHT22;4577;48.704;9.000;2022-08-18T05:06:27;19.40;81.10
9083;DHT22;4577;48.704;9.000;2022-08-18T05:08:55;19.50;81.40
9083;DHT22;4577;48.704;9.000;2022-08-18T05:11:23;19.30;81.00
9083;DHT22;4577;48.704;9.000;2022-08-18T05:13:49;19.20;81.50
9083;DHT22;4577;48.704;9.000;2022-08-18T05:16:17;19.00;83.00
9083;DHT22;4577;48.704;9.000;2022-08-18T05:21:10;18.90;84.70
9083;DHT22;4577;48.704;9.000;2022-08-18T05:23:44;18.80;84.70
9083;DHT22;4577;48.704;9.000;2022-08-18T05:26:11;18.80;84.80
9083;DHT22;4577;48.704;9.000;2022-08-18T05:28:41;18.80;84.40
9083;DHT22;4577;48.704;9.000;2022-08-18T05:31:15;18.80;84.70
9083;DHT22;4577;48.704;9.000;2022-08-18T05:33:42;18.70;84.50
9083;DHT22;4577;48.704;9.000;2022-08-18T05:36:41;18.80;85.00
9083;DHT22;4577;48.704;9.000;2022-08-18T05:42:07;18.70;87.00
9083;DHT22;4577;48.704;9.000;2022-08-18T05:44:39;18.80;89.70
9083;DHT22;4577;48.704;9.000;2022-08-18T05:47:14;18.90;88.40
9083;DHT22;4577;48.704;9.000;2022-08-18T05:49:44;18.70;89.70
9083;DHT22;4577;48.704;9.000;2022-08-18T05:55:07;18.80;88.40
9083;DHT22;4577;48.704;9.000;2022-08-18T05:57:58;18.90;87.10
9083;DHT22;4577;48.704;9.000;2022-08-18T06:00:27;18.80;86.00
9083;DHT22;4577;48.704;9.000;2022-08-18T06:03:19;19.00;85.80
9083;DHT22;4577;48.704;9.000;2022-08-18T06:05:51;19.30;84.00
9083;DHT22;4577;48.704;9.000;2022-08-18T06:08:19;19.60;83.10
9083;DHT22;4577;48.704;9.000;2022-08-18T06:10:49;19.60;81.70
9083;DHT22;4577;48.704;9.000;2022-08-18T06:13:16;19.60;81.00
9083;DHT22;4577;48.704;9.000;2022-08-18T06:15:53;19.70;80.60
9083;DHT22;4577;48.704;9.000;2022-08-18T06:21:26;19.80;79.50
9083;DHT22;4577;48.704;9.000;2022-08-18T06:37:41;20.10;78.20
9083;DHT22;4577;48.704;9.000;2022-08-18T06:42:54;20.10;77.90
9083;DHT22;4577;48.704;9.000;2022-08-18T06:45:24;20.20;77.60
9083;DHT22;4577;48.704;9.000;2022-08-18T06:48:17;20.10;77.50
9083;DHT22;4577;48.704;9.000;2022-08-18T06:50:51;20.20;76.90
9083;DHT22;4577;48.704;9.000;2022-08-18T06:55:46;20.30;76.10
9083;DHT22;4577;48.704;9.000;2022-08-18T07:00:44;20.60;75.70
9083;DHT22;4577;48.704;9.000;2022-08-18T07:03:21;20.60;75.40
9083;DHT22;4577;48.704;9.000;2022-08-18T07:08:44;20.40;73.70
9083;DHT22;4577;48.704;9.000;2022-08-18T07:11:33;20.50;74.30
9083;DHT22;4577;48.704;9.000;2022-08-18T07:19:19;20.40;72.20
9083;DHT22;4577;48.704;9.000;2022-08-18T07:24:42;20.10;72.90
9083;DHT22;4577;48.704;9.000;2022-08-18T07:27:15;20.10;73.00
9083;DHT22;4577;48.704;9.000;2022-08-18T07:29:58;20.10;73.10
9083;DHT22;4577;48.704;9.000;2022-08-18T07:32:28;19.90;74.70
9083;DHT22;4577;48.704;9.000;2022-08-18T07:37:34;19.90;76.60
9083;DHT22;4577;48.704;9.000;2022-08-18T07:40:18;19.90;76.30
9083;DHT22;4577;48.704;9.000;2022-08-18T07:45:35;20.00;76.10
9083;DHT22;4577;48.704;9.000;2022-08-18T07:50:47;20.20;75.30
9083;DHT22;4577;48.704;9.000;2022-08-18T07:55:46;20.30;75.10
9083;DHT22;4577;48.704;9.000;2022-08-18T07:58:43;20.10;75.60
9083;DHT22;4577;48.704;9.000;2022-08-18T08:01:30;19.90;76.00
9083;DHT22;4577;48.704;9.000;2022-08-18T08:09:53;20.20;76.80
9083;DHT22;4577;48.704;9.000;2022-08-18T08:12:52;20.40;75.40
9083;DHT22;4577;48.704;9.000;2022-08-18T08:15:31;20.60;75.50
9083;DHT22;4577;48.704;9.000;2022-08-18T08:33:51;20.30;76.50
9083;DHT22;4577;48.704;9.000;2022-08-18T08:36:30;20.40;76.50
9083;DHT22;4577;48.704;9.000;2022-08-18T08:39:02;20.50;76.50
9083;DHT22;4577;48.704;9.000;2022-08-18T08:41:40;20.40;76.60
9083;DHT22;4577;48.704;9.000;2022-08-18T08:44:12;20.50;76.80
9083;DHT22;4577;48.704;9.000;2022-08-18T08:46:53;20.50;76.80
9083;DHT22;4577;48.704;9.000;2022-08-18T08:55:05;20.80;75.90
9083;DHT22;4577;48.704;9.000;2022-08-18T08:57:38;20.80;75.70
9083;DHT22;4577;48.704;9.000;2022-08-18T09:00:08;20.80;75.60
9083;DHT22;4577;48.704;9.000;2022-08-18T09:05:34;20.90;74.70
9083;DHT22;4577;48.704;9.000;2022-08-18T09:08:26;21.20;75.40
9083;DHT22;4577;48.704;9.000;2022-08-18T09:18:40;20.80;76.20
9083;DHT22;4577;48.704;9.000;2022-08-18T09:24:24;21.10;76.30
9083;DHT22;4577;48.704;9.000;2022-08-18T09:39:49;20.80;76.70
9083;DHT22;4577;48.704;9.000;2022-08-18T09:42:49;20.90;76.00
9083;DHT22;4577;48.704;9.000;2022-08-18T09:48:28;21.00;75.40
9083;DHT22;4577;48.704;9.000;2022-08-18T09:51:16;20.90;75.10
9083;DHT22;4577;48.704;9.000;2022-08-18T09:56:14;21.20;74.60
9083;DHT22;4577;48.704;9.000;2022-08-18T09:58:50;21.30;74.10
9083;DHT22;4577;48.704;9.000;2022-08-18T10:04:19;21.60;72.70
9083;DHT22;4577;48.704;9.000;2022-08-18T10:06:50;21.70;72.10
9083;DHT22;4577;48.704;9.000;2022-08-18T10:14:46;21.70;72.90
9083;DHT22;4577;48.704;9.000;2022-08-18T10:17:37;21.70;73.10
9083;DHT22;4577;48.704;9.000;2022-08-18T10:22:43;21.70;73.00
9083;DHT22;4577;48.704;9.000;2022-08-18T10:25:11;21.80;73.10
9083;DHT22;4577;48.704;9.000;2022-08-18T10:33:00;21.90;73.20
9083;DHT22;4577;48.704;9.000;2022-08-18T10:38:23;22.10;71.40
9083;DHT22;4577;48.704;9.000;2022-08-18T10:41:07;22.20;70.80
9083;DHT22;4577;48.704;9.000;2022-08-18T10:43:40;22.20;71.00
9083;DHT22;4577;48.704;9.000;2022-08-18T10:46:32;22.20;70.50
9083;DHT22;4577;48.704;9.000;2022-08-18T10:49:16;22.30;70.30
9083;DHT22;4577;48.704;9.000;2022-08-18T10:52:00;22.20;70.50
9083;DHT22;4577;48.704;9.000;2022-08-18T11:03:59;22.20;69.90
9083;DHT22;4577;48.704;9.000;2022-08-18T11:06:27;22.40;69.50
9083;DHT22;4577;48.704;9.000;2022-08-18T11:08:56;22.20;69.10
9083;DHT22;4577;48.704;9.000;2022-08-18T11:11:30;22.20;69.10
9083;DHT22;4577;48.704;9.000;2022-08-18T11:14:12;22.30;69.00
9083;DHT22;4577;48.704;9.000;2022-08-18T11:17:05;22.60;68.40
9083;DHT22;4577;48.704;9.000;2022-08-18T11:19:44;22.50;67.90
9083;DHT22;4577;48.704;9.000;2022-08-18T11:22:25;22.70;68.30
9083;DHT22;4577;48.704;9.000;2022-08-18T11:27:27;22.90;67.00
9083;DHT22;4577;48.704;9.000;2022-08-18T11:29:53;22.60;65.90
9083;DHT22;4577;48.704;9.000;2022-08-18T11:37:35;22.80;66.10
9083;DHT22;4577;48.704;9.000;2022-08-18T11:43:01;22.80;65.80
9083;DHT22;4577;48.704;9.000;2022-08-18T11:45:49;22.90;65.80
9083;DHT22;4577;48.704;9.000;2022-08-18T11:48:42;22.90;64.20
9083;DHT22;4577;48.704;9.000;2022-08-18T11:53:52;22.80;63.80
9083;DHT22;4577;48.704;9.000;2022-08-18T12:01:37;22.90;63.90
9083;DHT22;4577;48.704;9.000;2022-08-18T12:11:55;23.20;63.20
9083;DHT22;4577;48.704;9.000;2022-08-18T12:14:24;23.20;63.40
9083;DHT22;4577;48.704;9.000;2022-08-18T12:16:51;23.20;62.70
9083;DHT22;4577;48.704;9.000;2022-08-18T12:19:17;23.10;62.80
9083;DHT22;4577;48.704;9.000;2022-08-18T12:21:58;23.30;62.90
9083;DHT22;4577;48.704;9.000;2022-08-18T12:24:27;23.20;61.70
9083;DHT22;4577;48.704;9.000;2022-08-18T12:29:20;23.60;61.20
9083;DHT22;4577;48.704;9.000;2022-08-18T12:31:54;23.60;61.80
9083;DHT22;4577;48.704;9.000;2022-08-18T12:34:23;23.50;61.10
9083;DHT22;4577;48.704;9.000;2022-08-18T12:36:55;23.50;60.30
9083;DHT22;4577;48.704;9.000;2022-08-18T12:49:15;23.60;59.50
9083;DHT22;4577;48.704;9.000;2022-08-18T12:59:02;23.80;57.30
9083;DHT22;4577;48.704;9.000;2022-08-18T13:03:55;23.90;58.30
9083;DHT22;4577;48.704;9.000;2022-08-18T13:06:24;23.90;58.00
9083;DHT22;4577;48.704;9.000;2022-08-18T13:08:51;24.00;57.60
9083;DHT22;4577;48.704;9.000;2022-08-18T13:11:20;24.00;55.20
9083;DHT22;4577;48.704;9.000;2022-08-18T13:13:47;24.00;55.30
9083;DHT22;4577;48.704;9.000;2022-08-18T13:16:13;24.00;55.20
9083;DHT22;4577;48.704;9.000;2022-08-18T13:18:40;24.10;55.50
9083;DHT22;4577;48.704;9.000;2022-08-18T13:21:08;24.20;55.40
9083;DHT22;4577;48.704;9.000;2022-08-18T13:23:35;24.30;55.90
9083;DHT22;4577;48.704;9.000;2022-08-18T13:26:03;24.30;55.80
9083;DHT22;4577;48.704;9.000;2022-08-18T13:28:30;24.40;55.80
9083;DHT22;4577;48.704;9.000;2022-08-18T13:30:57;24.50;54.80
9083;DHT22;4577;48.704;9.000;2022-08-18T13:33:23;24.20;54.40
9083;DHT22;4577;48.704;9.000;2022-08-18T13:35:49;24.30;54.50
9083;DHT22;4577;48.704;9.000;2022-08-18T13:38:16;24.30;54.10
9083;DHT22;4577;48.704;9.000;2022-08-18T13:40:51;24.20;54.60
9083;DHT22;4577;48.704;9.000;2022-08-18T13:43:20;24.40;54.90
9083;DHT22;4577;48.704;9.000;2022-08-18T13:48:15;24.50;55.20
9083;DHT22;4577;48.704;9.000;2022-08-18T13:53:14;24.80;55.00
9083;DHT22;4577;48.704;9.000;2022-08-18T13:55:40;24.70;54.20
9083;DHT22;4577;48.704;9.000;2022-08-18T14:00:33;24.90;53.90
9083;DHT22;4577;48.704;9.000;2022-08-18T14:02:59;24.90;53.60
9083;DHT22;4577;48.704;9.000;2022-08-18T14:05:32;24.70;53.10
9083;DHT22;4577;48.704;9.000;2022-08-18T14:08:02;24.70;53.40
9083;DHT22;4577;48.704;9.000;2022-08-18T14:12:59;25.00;54.30
9083;DHT22;4577;48.704;9.000;2022-08-18T14:23:04;24.20;54.90
9083;DHT22;4577;48.704;9.000;2022-08-18T14:28:34;24.50;54.40
9083;DHT22;4577;48.704;9.000;2022-08-18T14:31:02;24.40;54.30
9083;DHT22;4577;48.704;9.000;2022-08-18T14:33:29;24.40;53.90
9083;DHT22;4577;48.704;9.000;2022-08-18T14:35:56;24.50;54.10
9083;DHT22;4577;48.704;9.000;2022-08-18T14:40:49;24.60;53.90
9083;DHT22;4577;48.704;9.000;2022-08-18T14:43:17;24.60;55.00
9083;DHT22;4577;48.704;9.000;2022-08-18T14:48:15;24.50;54.10
9083;DHT22;4577;48.704;9.000;2022-08-18T14:53:08;24.60;53.60
9083;DHT22;4577;48.704;9.000;2022-08-18T15:00:28;24.80;52.60
9083;DHT22;4577;48.704;9.000;2022-08-18T15:02:54;24.90;53.20
9083;DHT22;4577;48.704;9.000;2022-08-18T15:07:48;25.10;52.80
9083;DHT22;4577;48.704;9.000;2022-08-18T15:10:14;24.90;52.20
9083;DHT22;4577;48.704;9.000;2022-08-18T15:12:40;24.90;52.50
9083;DHT22;4577;48.704;9.000;2022-08-18T15:15:08;24.80;52.40
9083;DHT22;4577;48.704;9.000;2022-08-18T15:20:08;24.70;52.50
9083;DHT22;4577;48.704;9.000;2022-08-18T15:22:42;24.70;52.40
9083;DHT22;4577;48.704;9.000;2022-08-18T15:25:27;24.90;52.50
9083;DHT22;4577;48.704;9.000;2022-08-18T15:28:20;24.80;52.40
9083;DHT22;4577;48.704;9.000;2022-08-18T15:30:48;24.80;51.90
9083;DHT22;4577;48.704;9.000;2022-08-18T15:33:15;24.90;52.60
9083;DHT22;4577;48.704;9.000;2022-08-18T15:35:44;24.70;51.60
9083;DHT22;4577;48.704;9.000;2022-08-18T15:38:15;24.80;51.90
9083;DHT22;4577;48.704;9.000;2022-08-18T15:40:53;24.70;51.50
9083;DHT22;4577;48.704;9.000;2022-08-18T15:45:45;24.80;51.50
9083;DHT22;4577;48.704;9.000;2022-08-18T15:48:15;24.70;51.90
9083;DHT22;4577;48.704;9.000;2022-08-18T15:50:42;24.70;52.40
9083;DHT22;4577;48.704;9.000;2022-08-18T15:53:10;24.70;53.20
9083;DHT22;4577;48.704;9.000;2022-08-18T15:55:38;24.60;53.30
9083;DHT22;4577;48.704;9.000;2022-08-18T15:58:05;24.50;53.90
9083;DHT22;4577;48.704;9.000;2022-08-18T16:03:04;24.50;54.10
9083;DHT22;4577;48.704;9.000;2022-08-18T16:05:33;24.30;54.60
9083;DHT22;4577;48.704;9.000;2022-08-18T16:08:00;24.40;55.20
9083;DHT22;4577;48.704;9.000;2022-08-18T16:10:28;24.20;55.00
9083;DHT22;4577;48.704;9.000;2022-08-18T16:15:23;24.30;55.20
9083;DHT22;4577;48.704;9.000;2022-08-18T16:17:51;24.30;55.40
9083;DHT22;4577;48.704;9.000;2022-08-18T16:22:45;24.30;55.00
9083;DHT22;4577;48.704;9.000;2022-08-18T16:25:11;24.30;55.00
9083;DHT22;4577;48.704;9.000;2022-08-18T16:27:38;24.30;54.50
9083;DHT22;4577;48.704;9.000;2022-08-18T16:30:17;24.30;54.70
9083;DHT22;4577;48.704;9.000;2022-08-18T16:35:13;24.20;54.80
9083;DHT22;4577;48.704;9.000;2022-08-18T16:37:39;24.20;55.20
9083;DHT22;4577;48.704;9.000;2022-08-18T16:40:05;24.00;56.40
9083;DHT22;4577;48.704;9.000;2022-08-18T16:44:59;23.70;58.10
9083;DHT22;4577;48.704;9.000;2022-08-18T16:49:52;23.70;58.30
9083;DHT22;4577;48.704;9.000;2022-08-18T16:54:46;23.50;58.60
9083;DHT22;4577;48.704;9.000;2022-08-18T16:57:12;23.30;58.90
9083;DHT22;4577;48.704;9.000;2022-08-18T16:59:38;23.20;59.80
9083;DHT22;4577;48.704;9.000;2022-08-18T17:07:35;22.90;61.50
9083;DHT22;4577;48.704;9.000;2022-08-18T17:19:50;22.70;63.80
9083;DHT22;4577;48.704;9.000;2022-08-18T17:27:27;22.70;63.90
9083;DHT22;4577;48.704;9.000;2022-08-18T17:30:22;22.70;64.00
9083;DHT22;4577;48.704;9.000;2022-08-18T17:33:19;22.60;64.20
9083;DHT22;4577;48.704;9.000;2022-08-18T17:38:29;22.60;64.90
9083;DHT22;4577;48.704;9.000;2022-08-18T17:43:27;22.60;65.30
9083;DHT22;4577;48.704;9.000;2022-08-18T17:46:21;22.60;65.90
9083;DHT22;4577;48.704;9.000;2022-08-18T17:49:26;22.60;66.50
9083;DHT22;4577;48.704;9.000;2022-08-18T17:52:14;22.50;67.10
9083;DHT22;4577;48.704;9.000;2022-08-18T17:54:44;22.40;67.50
9083;DHT22;4577;48.704;9.000;2022-08-18T17:57:36;22.50;67.60
9083;DHT22;4577;48.704;9.000;2022-08-18T18:05:07;22.50;68.20
9083;DHT22;4577;48.704;9.000;2022-08-18T18:15:51;22.30;69.30
9083;DHT22;4577;48.704;9.000;2022-08-18T18:18:41;22.30;69.30
9083;DHT22;4577;48.704;9.000;2022-08-18T18:23:43;22.20;69.80
9083;DHT22;4577;48.704;9.000;2022-08-18T18:26:32;22.20;69.80
9083;DHT22;4577;48.704;9.000;2022-08-18T18:29:28;22.20;70.10
9083;DHT22;4577;48.704;9.000;2022-08-18T18:35:10;22.10;70.10
9083;DHT22;4577;48.704;9.000;2022-08-18T18:37:54;22.00;70.00
9083;DHT22;4577;48.704;9.000;2022-08-18T18:40:25;22.10;69.70
9083;DHT22;4577;48.704;9.000;2022-08-18T18:45:25;22.00;68.80
9083;DHT22;4577;48.704;9.000;2022-08-18T18:48:08;22.00;68.80
9083;DHT22;4577;48.704;9.000;2022-08-18T18:56:51;22.00;68.00
9083;DHT22;4577;48.704;9.000;2022-08-18T19:01:46;21.90;67.60
9083;DHT22;4577;48.704;9.000;2022-08-18T19:04:31;22.00;67.50
9083;DHT22;4577;48.704;9.000;2022-08-18T19:09:37;21.90;66.80
9083;DHT22;4577;48.704;9.000;2022-08-18T19:12:41;21.90;66.80
9083;DHT22;4577;48.704;9.000;2022-08-18T19:15:13;21.90;66.70
9083;DHT22;4577;48.704;9.000;2022-08-18T19:18:05;21.80;66.50
9083;DHT22;4577;48.704;9.000;2022-08-18T19:20:43;21.80;66.50
9083;DHT22;4577;48.704;9.000;2022-08-18T19:34:03;21.70;66.70
9083;DHT22;4577;48.704;9.000;2022-08-18T19:36:50;21.70;66.70
9083;DHT22;4577;48.704;9.000;2022-08-18T19:39:48;21.70;66.90
9083;DHT22;4577;48.704;9.000;2022-08-18T19:42:22;21.60;67.00
9083;DHT22;4577;48.704;9.000;2022-08-18T19:52:56;21.30;66.70
9083;DHT22;4577;48.704;9.000;2022-08-18T20:00:59;21.40;67.00
9083;DHT22;4577;48.704;9.000;2022-08-18T20:19:44;21.30;66.60
9083;DHT22;4577;48.704;9.000;2022-08-18T20:22:31;21.30;66.50
9083;DHT22;4577;48.704;9.000;2022-08-18T20:25:34;21.40;66.70
9083;DHT22;4577;48.704;9.000;2022-08-18T20:35:30;21.30;66.90
9083;DHT22;4577;48.704;9.000;2022-08-18T20:38:19;21.30;66.80
9083;DHT22;4577;48.704;9.000;2022-08-18T20:40:49;21.20;66.90
9083;DHT22;4577;48.704;9.000;2022-08-18T20:43:35;21.20;67.20
9083;DHT22;4577;48.704;9.000;2022-08-18T20:52:09;21.20;67.40
9083;DHT22;4577;48.704;9.000;2022-08-18T20:54:57;21.10;67.30
9083;DHT22;4577;48.704;9.000;2022-08-18T20:57:27;21.00;67.40
9083;DHT22;4577;48.704;9.000;2022-08-18T21:00:14;21.10;67.50
9083;DHT22;4577;48.704;9.000;2022-08-18T21:02:50;21.20;67.60
9083;DHT22;4577;48.704;9.000;2022-08-18T21:05:30;21.00;67.40
9083;DHT22;4577;48.704;9.000;2022-08-18T21:08:22;21.10;67.40
9083;DHT22;4577;48.704;9.000;2022-08-18T21:16:34;21.00;67.60
9083;DHT22;4577;48.704;9.000;2022-08-18T21:19:08;21.10;67.40
9083;DHT22;4577;48.704;9.000;2022-08-18T21:21:43;21.10;67.20
9083;DHT22;4577;48.704;9.000;2022-08-18T21:24:20;21.00;67.10
9083;DHT22;4577;48.704;9.000;2022-08-18T21:26:47;21.00;67.20
9083;DHT22;4577;48.704;9.000;2022-08-18T21:29:13;21.10;67.00
9083;DHT22;4577;48.704;9.000;2022-08-18T21:31:42;21.00;66.80
9083;DHT22;4577;48.704;9.000;2022-08-18T21:36:57;21.00;66.60
9083;DHT22;4577;48.704;9.000;2022-08-18T21:41:54;20.90;66.80
9083;DHT22;4577;48.704;9.000;2022-08-18T21:49:25;20.80;66.60
9083;DHT22;4577;48.704;9.000;2022-08-18T21:51:51;20.90;66.60
9083;DHT22;4577;48.704;9.000;2022-08-18T21:54:23;20.90;66.20
9083;DHT22;4577;48.704;9.000;2022-08-18T21:57:16;21.00;66.10
9083;DHT22;4577;48.704;9.000;2022-08-18T22:00:12;20.90;66.10
9083;DHT22;4577;48.704;9.000;2022-08-18T22:02:41;20.90;66.20
9083;DHT22;4577;48.704;9.000;2022-08-18T22:05:11;20.90;66.10
9083;DHT22;4577;48.704;9.000;2022-08-18T22:07:45;20.90;66.20
9083;DHT22;4577;48.704;9.000;2022-08-18T22:10:29;20.90;66.10
9083;DHT22;4577;48.704;9.000;2022-08-18T22:13:22;20.90;66.00
9083;DHT22;4577;48.704;9.000;2022-08-18T22:16:27;20.80;66.10
9083;DHT22;4577;48.704;9.000;2022-08-18T22:21:45;20.70;66.00
9083;DHT22;4577;48.704;9.000;2022-08-18T22:24:19;20.80;66.30
9083;DHT22;4577;48.704;9.000;2022-08-18T22:27:09;21.00;66.70
9083;DHT22;4577;48.704;9.000;2022-08-18T22:34:30;20.80;66.90
9083;DHT22;4577;48.704;9.000;2022-08-18T22:40:01;20.60;67.10
9083;DHT22;4577;48.704;9.000;2022-08-18T22:42:30;20.60;67.30
9083;DHT22;4577;48.704;9.000;2022-08-18T22:45:02;20.60;67.40
9083;DHT22;4577;48.704;9.000;2022-08-18T22:47:28;20.60;67.60
9083;DHT22;4577;48.704;9.000;2022-08-18T22:49:54;20.50;67.60
9083;DHT22;4577;48.704;9.000;2022-08-18T22:52:30;20.50;67.40
9083;DHT22;4577;48.704;9.000;2022-08-18T22:54:58;20.60;67.40
9083;DHT22;4577;48.704;9.000;2022-08-18T23:04:44;20.50;67.40
9083;DHT22;4577;48.704;9.000;2022-08-18T23:07:10;20.60;67.30
9083;DHT22;4577;48.704;9.000;2022-08-18T23:09:36;20.60;67.20
9083;DHT22;4577;48.704;9.000;2022-08-18T23:12:11;20.60;67.20
9083;DHT22;4577;48.704;9.000;2022-08-18T23:14:40;20.60;66.90
9083;DHT22;4577;48.704;9.000;2022-08-18T23:19:37;20.50;67.20
9083;DHT22;4577;48.704;9.000;2022-08-18T23:22:04;20.40;67.20
9083;DHT22;4577;48.704;9.000;2022-08-18T23:34:18;20.50;67.10
9083;DHT22;4577;48.704;9.000;2022-08-18T23:36:53;20.40;67.30
9083;DHT22;4577;48.704;9.000;2022-08-18T23:44:15;20.40;67.50
9083;DHT22;4577;48.704;9.000;2022-08-18T23:46:41;20.40;67.40
9083;DHT22;4577;48.704;9.000;2022-08-18T23:49:08;20.40;67.30
9083;DHT22;4577;48.704;9.000;2022-08-18T23:51:40;20.40;67.30
9083;DHT22;4577;48.704;9.000;2022-08-18T23:54:14;20.40;67.40
9083;DHT22;4577;48.704;9.000;2022-08-18T23:56:41;20.40;67.60
9083;DHT22;4577;48.704;9.000;2022-08-18T23:59:07;20.30;67.70
